createdAt,value
2019-06-08T00:01:53.428Z,0.80
2019-06-08T00:04:23.681Z,1.07
2019-06-08T00:06:53.742Z,0.90
2019-06-08T00:09:24.130Z,0.80
2019-06-08T00:11:54.178Z,0.90
2019-06-08T00:14:25.488Z,0.80
2019-06-08T00:16:55.785Z,1.00
2019-06-08T00:19:25.778Z,0.90
2019-06-08T00:21:56.061Z,1.00
2019-06-08T00:24:26.326Z,0.93
2019-06-08T00:26:56.330Z,0.80
2019-06-08T00:29:26.243Z,0.90
2019-06-08T00:31:56.067Z,1.00
2019-06-08T00:34:26.056Z,0.88
2019-06-08T00:36:56.228Z,1.00
2019-06-08T00:39:26.180Z,1.00
2019-06-08T00:41:56.271Z,1.03
2019-06-08T00:44:26.434Z,1.05
2019-06-08T00:46:56.373Z,0.80
2019-06-08T00:49:26.343Z,1.10
2019-06-08T00:51:56.363Z,0.75
2019-06-08T00:54:26.346Z,1.03
2019-06-08T00:56:56.424Z,0.80
2019-06-08T00:59:26.700Z,1.07
2019-06-08T01:01:56.662Z,1.05
2019-06-08T01:04:27.265Z,1.07
2019-06-08T01:06:57.280Z,0.98
2019-06-08T01:09:27.292Z,1.07
2019-06-08T01:11:57.297Z,1.17
2019-06-08T01:14:27.335Z,1.45
2019-06-08T01:16:57.302Z,1.10
2019-06-08T01:19:27.508Z,0.80
2019-06-08T01:21:57.694Z,1.02
2019-06-08T01:24:28.084Z,1.02
2019-06-08T01:26:58.159Z,1.20
2019-06-08T01:29:28.438Z,1.27
2019-06-08T01:31:58.546Z,1.12
2019-06-08T01:34:29.055Z,0.88
2019-06-08T01:36:59.137Z,1.00
2019-06-08T01:39:32.267Z,1.20
2019-06-08T01:42:01.750Z,0.90
2019-06-08T01:44:32.602Z,1.17
2019-06-08T01:47:02.583Z,1.50
2019-06-08T01:49:32.621Z,0.98
2019-06-08T01:52:02.632Z,1.10
2019-06-08T01:54:33.299Z,1.02
2019-06-08T01:57:03.368Z,1.10
2019-06-08T01:59:34.801Z,0.90
2019-06-08T02:02:04.830Z,2.17
2019-06-08T02:04:34.911Z,1.40
2019-06-08T02:07:04.923Z,0.95
2019-06-08T02:09:34.974Z,1.10
2019-06-08T02:12:06.191Z,1.30
2019-06-08T02:14:36.128Z,1.00
2019-06-08T02:17:06.592Z,1.20
2019-06-08T02:19:36.674Z,0.97
2019-06-08T02:22:06.607Z,1.10
2019-06-08T02:24:36.857Z,0.93
2019-06-08T02:27:06.840Z,1.20
2019-06-08T02:29:37.386Z,1.07
2019-06-08T02:32:07.651Z,1.10
2019-06-08T02:34:38.273Z,1.05
2019-06-08T02:37:08.501Z,0.90
2019-06-08T02:39:39.884Z,0.93
2019-06-08T02:42:10.104Z,0.90
2019-06-08T02:44:40.718Z,1.33
2019-06-08T02:47:10.783Z,1.10
2019-06-08T02:49:41.038Z,1.30
2019-06-08T02:52:11.818Z,1.20
2019-06-08T02:54:42.052Z,1.00
2019-06-08T02:57:14.053Z,1.40
2019-06-08T02:59:45.569Z,1.30
2019-06-08T03:02:17.503Z,1.10
2019-06-08T03:04:47.963Z,1.12
2019-06-08T03:07:20.063Z,1.12
2019-06-08T03:09:53.013Z,1.33
2019-06-08T03:12:26.059Z,1.10
2019-06-08T03:14:56.665Z,1.54
2019-06-08T03:17:26.465Z,1.60
2019-06-08T03:19:56.495Z,1.00
2019-06-08T03:22:26.456Z,1.20
2019-06-08T03:24:56.428Z,1.80
2019-06-08T03:27:27.705Z,0.90
2019-06-08T03:29:57.693Z,1.47
2019-06-08T03:32:27.840Z,1.00
2019-06-08T03:34:58.114Z,1.12
2019-06-08T03:37:28.038Z,1.35
2019-06-08T03:39:57.881Z,1.10
2019-06-08T03:42:28.107Z,1.00
2019-06-08T03:44:57.950Z,0.90
2019-06-08T03:47:28.166Z,1.05
2019-06-08T03:49:58.413Z,1.23
2019-06-08T03:52:28.704Z,1.30
2019-06-08T03:54:58.503Z,1.00
2019-06-08T03:57:28.488Z,0.70
2019-06-08T03:59:58.471Z,1.20
2019-06-08T04:02:28.473Z,1.10
2019-06-08T04:04:58.913Z,0.98
2019-06-08T04:07:28.859Z,1.55
2019-06-08T04:09:58.841Z,1.30
2019-06-08T04:12:28.815Z,1.40
2019-06-08T04:14:59.454Z,1.10
2019-06-08T04:17:29.508Z,0.90
2019-06-08T04:20:10.131Z,1.00
2019-06-08T04:22:31.575Z,1.57
2019-06-08T04:25:01.560Z,1.20
2019-06-08T04:27:31.523Z,1.27
2019-06-08T04:30:01.633Z,1.20
2019-06-08T04:32:31.859Z,1.30
2019-06-08T04:35:01.749Z,1.27
2019-06-08T04:37:31.823Z,1.60
2019-06-08T04:40:01.795Z,1.40
2019-06-08T04:42:33.359Z,1.17
2019-06-08T04:45:03.451Z,1.40
2019-06-08T04:47:34.556Z,0.93
2019-06-08T04:50:20.758Z,1.72
2019-06-08T04:52:38.892Z,0.77
2019-06-08T04:55:08.918Z,1.10
2019-06-08T04:57:39.612Z,1.90
2019-06-08T05:00:12.785Z,1.23
2019-06-08T05:02:44.690Z,1.00
2019-06-08T05:05:14.215Z,1.12
2019-06-08T05:07:45.876Z,1.30
2019-06-08T05:10:15.938Z,1.40
2019-06-08T05:12:47.745Z,1.22
2019-06-08T05:15:17.954Z,1.10
2019-06-08T05:17:49.540Z,1.13
2019-06-08T05:20:19.804Z,1.43
2019-06-08T05:22:49.922Z,1.37
2019-06-08T05:25:19.858Z,1.20
2019-06-08T05:27:49.824Z,1.50
2019-06-08T05:30:20.029Z,1.43
2019-06-08T05:32:50.083Z,1.70
2019-06-08T05:35:20.079Z,1.20
2019-06-08T05:37:50.089Z,1.25
2019-06-08T05:40:20.199Z,1.37
2019-06-08T05:42:50.198Z,1.32
2019-06-08T05:45:20.167Z,1.70
2019-06-08T05:47:50.189Z,1.13
2019-06-08T05:50:20.196Z,0.93
2019-06-08T05:52:50.384Z,1.00
2019-06-08T05:55:20.437Z,1.60
2019-06-08T05:57:50.595Z,1.40
2019-06-08T06:00:20.856Z,1.57
2019-06-08T06:02:51.045Z,1.37
2019-06-08T06:05:22.320Z,1.85
2019-06-08T06:07:52.330Z,1.45
2019-06-08T06:10:22.832Z,1.35
2019-06-08T06:12:52.709Z,1.37
2019-06-08T06:15:22.707Z,1.27
2019-06-08T06:17:52.860Z,1.17
2019-06-08T06:20:22.777Z,1.40
2019-06-08T06:22:52.868Z,1.40
2019-06-08T06:25:22.889Z,1.95
2019-06-08T06:27:53.085Z,1.35
2019-06-08T06:30:23.070Z,0.90
2019-06-08T06:32:52.977Z,1.33
2019-06-08T06:35:22.950Z,1.75
2019-06-08T06:37:52.826Z,1.00
2019-06-08T06:40:22.792Z,1.40
2019-06-08T06:42:53.040Z,1.12
2019-06-08T06:45:23.210Z,1.40
2019-06-08T06:47:53.419Z,1.67
2019-06-08T06:50:23.921Z,1.55
2019-06-08T06:52:53.892Z,1.17
2019-06-08T06:55:25.430Z,1.00
2019-06-08T06:57:55.568Z,1.42
2019-06-08T07:00:32.093Z,1.10
2019-06-08T07:03:02.386Z,1.02
2019-06-08T07:05:32.412Z,1.30
2019-06-08T07:08:02.376Z,1.13
2019-06-08T07:10:32.487Z,1.52
2019-06-08T07:13:02.439Z,1.70
2019-06-08T07:15:41.114Z,1.10
2019-06-08T07:18:04.633Z,1.52
2019-06-08T07:20:34.650Z,1.20
2019-06-08T07:23:04.611Z,1.25
2019-06-08T07:25:34.504Z,1.17
2019-06-08T07:28:04.501Z,1.00
2019-06-08T07:30:34.546Z,1.60
2019-06-08T07:33:04.632Z,1.17
2019-06-08T07:35:34.591Z,1.40
2019-06-08T07:38:04.623Z,1.40
2019-06-08T07:40:34.644Z,0.90
2019-06-08T07:43:04.690Z,1.65
2019-06-08T07:45:34.948Z,1.83
2019-06-08T07:48:04.909Z,1.40
2019-06-08T07:50:34.874Z,1.62
2019-06-08T07:53:04.840Z,1.60
2019-06-08T07:55:34.904Z,1.50
2019-06-08T07:58:05.239Z,1.42
2019-06-08T08:00:35.224Z,1.42
2019-06-08T08:03:05.295Z,1.70
2019-06-08T08:05:35.218Z,1.70
2019-06-08T08:08:05.173Z,1.30
2019-06-08T08:10:35.728Z,1.30
2019-06-08T08:13:05.982Z,1.60
2019-06-08T08:15:35.979Z,1.92
2019-06-08T08:18:06.608Z,1.35
2019-06-08T08:20:36.673Z,1.52
2019-06-08T08:23:09.087Z,1.40
2019-06-08T08:25:38.344Z,1.30
2019-06-08T08:28:08.402Z,1.07
2019-06-08T08:30:38.379Z,1.47
2019-06-08T08:33:09.347Z,1.17
2019-06-08T08:35:39.333Z,1.72
2019-06-08T08:38:09.623Z,1.57
2019-06-08T08:40:39.594Z,1.55
2019-06-08T08:43:09.867Z,1.77
2019-06-08T08:45:41.346Z,1.33
2019-06-08T08:48:24.480Z,1.37
2019-06-08T08:50:43.447Z,1.87
2019-06-08T08:53:13.330Z,1.87
2019-06-08T08:55:43.294Z,1.65
2019-06-08T08:58:13.261Z,1.35
2019-06-08T09:00:43.235Z,1.40
2019-06-08T09:03:27.818Z,1.82
2019-06-08T09:05:45.171Z,1.80
2019-06-08T09:08:15.426Z,1.65
2019-06-08T09:10:48.020Z,1.04
2019-06-08T09:13:18.667Z,1.75
2019-06-08T09:15:49.095Z,1.17
2019-06-08T09:18:19.084Z,1.77
2019-06-08T09:20:49.102Z,1.60
2019-06-08T09:23:21.847Z,1.05
2019-06-08T09:25:53.569Z,1.30
2019-06-08T09:28:22.770Z,1.07
2019-06-08T09:30:54.090Z,1.53
2019-06-08T09:33:24.308Z,1.55
2019-06-08T09:35:58.172Z,1.72
2019-06-08T09:38:28.718Z,1.50
2019-06-08T09:41:01.245Z,1.50
2019-06-08T09:43:31.669Z,1.60
2019-06-08T09:46:04.201Z,1.40
2019-06-08T09:48:33.327Z,1.12
2019-06-08T09:51:05.656Z,2.00
2019-06-08T09:53:40.465Z,1.40
2019-06-08T09:56:09.553Z,2.07
2019-06-08T09:58:40.003Z,1.45
2019-06-08T10:01:12.392Z,1.90
2019-06-08T10:03:41.895Z,1.60
2019-06-08T10:06:13.206Z,1.60
2019-06-08T10:08:43.318Z,1.73
2019-06-08T10:11:13.574Z,1.30
2019-06-08T10:13:43.686Z,1.70
2019-06-08T10:16:13.945Z,1.60
2019-06-08T10:18:44.038Z,1.90
2019-06-08T10:21:14.135Z,1.63
2019-06-08T10:23:44.414Z,1.50
2019-06-08T10:26:14.403Z,1.72
2019-06-08T10:28:44.536Z,1.90
2019-06-08T10:31:14.502Z,1.50
2019-06-08T10:33:44.489Z,1.60
2019-06-08T10:36:14.561Z,1.98
2019-06-08T10:38:47.775Z,1.52
2019-06-08T10:41:21.422Z,1.63
2019-06-08T10:43:48.628Z,1.50
2019-06-08T10:46:20.906Z,1.45
2019-06-08T10:48:50.735Z,1.65
2019-06-08T10:51:20.764Z,1.20
2019-06-08T10:53:53.050Z,1.53
2019-06-08T10:56:22.584Z,1.80
2019-06-08T10:58:52.637Z,1.60
2019-06-08T11:01:22.618Z,1.20
2019-06-08T11:03:52.524Z,1.47
2019-06-08T11:06:22.535Z,1.73
2019-06-08T11:08:52.893Z,1.60
2019-06-08T11:11:22.868Z,2.12
2019-06-08T11:13:53.032Z,1.57
2019-06-08T11:16:22.982Z,1.40
2019-06-08T11:18:53.185Z,1.70
2019-06-08T11:21:23.209Z,1.40
2019-06-08T11:24:05.632Z,1.65
2019-06-08T11:26:25.083Z,1.57
2019-06-08T11:28:58.386Z,1.40
2019-06-08T11:31:28.892Z,2.05
2019-06-08T11:34:00.151Z,2.20
2019-06-08T11:36:30.300Z,2.00
2019-06-08T11:39:00.549Z,1.80
2019-06-08T11:41:33.483Z,1.27
2019-06-08T11:44:05.069Z,1.30
2019-06-08T11:46:38.124Z,1.67
2019-06-08T11:49:12.568Z,2.00
2019-06-08T11:51:39.289Z,1.67
2019-06-08T11:54:28.685Z,1.65
2019-06-08T11:56:42.928Z,1.80
2019-06-08T11:59:14.421Z,1.60
2019-06-08T12:01:44.959Z,1.50
2019-06-08T12:04:14.882Z,1.83
2019-06-08T12:06:44.849Z,1.70
2019-06-08T12:09:15.138Z,1.82
2019-06-08T12:11:47.918Z,1.80
2019-06-08T12:14:17.829Z,2.08
2019-06-08T12:16:48.619Z,1.20
2019-06-08T12:19:20.843Z,1.60
2019-06-08T12:21:51.032Z,1.77
2019-06-08T12:24:21.130Z,1.10
2019-06-08T12:26:55.570Z,2.00
2019-06-08T12:29:22.983Z,1.80
2019-06-08T12:31:53.216Z,1.62
2019-06-08T12:34:23.468Z,1.70
2019-06-08T12:36:53.498Z,1.20
2019-06-08T12:39:23.720Z,1.65
2019-06-08T12:41:53.639Z,1.30
2019-06-08T12:44:26.217Z,1.30
2019-06-08T12:46:55.207Z,1.63
2019-06-08T12:49:26.576Z,1.47
2019-06-08T12:51:58.105Z,2.22
2019-06-08T12:54:28.488Z,2.17
2019-06-08T12:57:00.825Z,1.60
2019-06-08T12:59:30.738Z,2.02
2019-06-08T13:02:01.883Z,2.10
2019-06-08T13:04:31.883Z,1.80
2019-06-08T13:07:01.975Z,1.75
2019-06-08T13:09:31.942Z,1.73
2019-06-08T13:12:01.900Z,1.90
2019-06-08T13:14:32.189Z,1.82
2019-06-08T13:17:02.187Z,1.53
2019-06-08T13:19:32.025Z,1.85
2019-06-08T13:22:02.092Z,2.00
2019-06-08T13:24:32.012Z,1.90
2019-06-08T13:27:01.965Z,2.20
2019-06-08T13:29:31.941Z,2.00
2019-06-08T13:32:03.895Z,1.82
2019-06-08T13:34:34.045Z,1.90
2019-06-08T13:37:04.089Z,1.57
2019-06-08T13:39:34.336Z,1.90
2019-06-08T13:42:04.622Z,2.02
2019-06-08T13:44:34.586Z,1.98
2019-06-08T13:47:04.600Z,1.90
2019-06-08T13:49:34.577Z,1.95
2019-06-08T13:52:04.555Z,1.12
2019-06-08T13:54:38.030Z,1.37
2019-06-08T13:57:08.533Z,1.95
2019-06-08T13:59:39.094Z,1.50
2019-06-08T14:02:09.259Z,1.60
2019-06-08T14:04:39.747Z,1.45
2019-06-08T14:07:09.794Z,1.40
2019-06-08T14:09:39.827Z,1.40
2019-06-08T14:12:10.596Z,2.05
2019-06-08T14:14:40.668Z,1.67
2019-06-08T14:17:10.895Z,1.37
2019-06-08T14:19:40.846Z,1.90
2019-06-08T14:22:10.958Z,1.67
2019-06-08T14:24:41.233Z,1.62
2019-06-08T14:27:11.425Z,1.60
2019-06-08T14:29:41.475Z,1.80
2019-06-08T14:32:11.448Z,1.40
2019-06-08T14:34:42.752Z,1.45
2019-06-08T14:37:12.759Z,1.90
2019-06-08T14:39:42.988Z,2.10
2019-06-08T14:42:12.969Z,1.90
2019-06-08T14:44:42.873Z,1.57
2019-06-08T14:47:17.031Z,1.80
2019-06-08T14:49:48.898Z,1.95
2019-06-08T14:52:22.349Z,2.02
2019-06-08T14:54:52.720Z,2.20
2019-06-08T14:57:23.384Z,1.95
2019-06-08T14:59:56.287Z,1.27
2019-06-08T15:02:28.168Z,1.42
2019-06-08T15:04:57.183Z,1.77
2019-06-08T15:07:31.383Z,1.53
2019-06-08T15:09:58.748Z,1.67
2019-06-08T15:12:31.311Z,1.42
2019-06-08T15:15:00.297Z,1.52
2019-06-08T15:17:32.109Z,1.70
2019-06-08T15:20:02.437Z,1.40
2019-06-08T15:22:32.474Z,1.50
2019-06-08T15:25:02.467Z,1.80
2019-06-08T15:27:33.469Z,1.72
2019-06-08T15:30:04.032Z,1.70
2019-06-08T15:32:35.708Z,1.50
2019-06-08T15:35:08.018Z,1.98
2019-06-08T15:37:40.800Z,1.65
2019-06-08T15:40:10.275Z,1.75
2019-06-08T15:42:40.275Z,1.42
2019-06-08T15:45:10.465Z,1.77
2019-06-08T15:47:40.940Z,1.92
2019-06-08T15:50:11.569Z,1.95
2019-06-08T15:52:41.734Z,1.50
2019-06-08T15:55:12.044Z,2.12
2019-06-08T15:57:42.597Z,1.60
2019-06-08T16:00:13.065Z,2.15
2019-06-08T16:02:42.949Z,2.00
2019-06-08T16:05:13.126Z,1.93
2019-06-08T16:07:43.161Z,2.58
2019-06-08T16:10:13.152Z,1.90
2019-06-08T16:12:43.298Z,2.10
2019-06-08T16:15:13.579Z,1.72
2019-06-08T16:17:43.477Z,1.87
2019-06-08T16:20:13.807Z,2.00
2019-06-08T16:22:43.818Z,1.77
2019-06-08T16:25:15.459Z,2.23
2019-06-08T16:27:45.606Z,1.95
2019-06-08T16:30:15.680Z,1.70
2019-06-08T16:32:45.495Z,2.02
2019-06-08T16:35:15.432Z,1.95
2019-06-08T16:37:45.398Z,1.70
2019-06-08T16:40:15.565Z,1.30
2019-06-08T16:42:45.798Z,2.08
2019-06-08T16:45:16.026Z,1.52
2019-06-08T16:47:46.022Z,1.77
2019-06-08T16:50:24.465Z,1.60
2019-06-08T16:52:48.075Z,1.47
2019-06-08T16:55:18.106Z,1.67
2019-06-08T16:57:47.995Z,1.70
2019-06-08T17:00:30.837Z,1.50
2019-06-08T17:02:50.216Z,1.87
2019-06-08T17:05:20.113Z,1.70
2019-06-08T17:07:50.310Z,1.80
2019-06-08T17:10:20.633Z,1.57
2019-06-08T17:12:50.545Z,1.60
2019-06-08T17:15:21.188Z,1.00
2019-06-08T17:17:51.240Z,1.60
2019-06-08T17:20:21.263Z,1.40
2019-06-08T17:22:51.129Z,1.47
2019-06-08T17:25:21.102Z,2.00
2019-06-08T17:27:51.321Z,1.80
2019-06-08T17:30:21.286Z,1.82
2019-06-08T17:32:51.593Z,2.15
2019-06-08T17:35:21.590Z,1.60
2019-06-08T17:37:51.471Z,1.70
2019-06-08T17:40:21.449Z,1.80
2019-06-08T17:42:51.439Z,1.80
2019-06-08T17:45:21.430Z,1.70
2019-06-08T17:47:51.381Z,1.85
2019-06-08T17:50:21.352Z,1.50
2019-06-08T17:52:51.844Z,1.77
2019-06-08T17:55:21.836Z,2.00
2019-06-08T17:57:53.720Z,1.77
2019-06-08T18:00:24.546Z,1.45
2019-06-08T18:02:57.720Z,1.60
2019-06-08T18:05:28.371Z,1.95
2019-06-08T18:07:58.110Z,1.77
2019-06-08T18:10:28.982Z,1.70
2019-06-08T18:12:59.002Z,2.02
2019-06-08T18:15:29.649Z,2.30
2019-06-08T18:17:59.862Z,2.17
2019-06-08T18:20:29.842Z,2.15
2019-06-08T18:22:59.813Z,1.85
2019-06-08T18:25:29.784Z,1.87
2019-06-08T18:28:09.931Z,2.05
2019-06-08T18:30:31.777Z,2.22
2019-06-08T18:33:02.002Z,1.90
2019-06-08T18:35:32.000Z,1.83
2019-06-08T18:38:02.010Z,1.87
2019-06-08T18:40:31.991Z,2.20
2019-06-08T18:43:02.339Z,2.08
2019-06-08T18:45:32.558Z,1.70
2019-06-08T18:48:03.022Z,1.50
2019-06-08T18:50:33.058Z,1.87
2019-06-08T18:53:03.048Z,1.90
2019-06-08T18:55:33.530Z,1.70
2019-06-08T18:58:16.336Z,1.27
2019-06-08T19:00:39.778Z,1.75
2019-06-08T19:03:09.564Z,2.17
2019-06-08T19:05:43.538Z,2.20
2019-06-08T19:08:12.103Z,1.80
2019-06-08T19:10:43.973Z,1.80
2019-06-08T19:13:17.536Z,1.85
2019-06-08T19:15:52.513Z,2.10
2019-06-08T19:18:18.838Z,1.90
2019-06-08T19:20:52.642Z,2.23
2019-06-08T19:23:21.531Z,1.80
2019-06-08T19:25:51.530Z,2.10
2019-06-08T19:28:35.302Z,1.95
2019-06-08T19:30:53.590Z,1.95
2019-06-08T19:33:23.588Z,1.70
2019-06-08T19:35:54.108Z,1.67
2019-06-08T19:38:24.454Z,1.98
2019-06-08T19:40:57.343Z,2.00
2019-06-08T19:43:27.793Z,2.10
2019-06-08T19:45:58.461Z,2.37
2019-06-08T19:48:31.242Z,1.90
2019-06-08T19:51:00.727Z,2.45
2019-06-08T19:53:30.897Z,2.10
2019-06-08T19:56:00.967Z,2.20
2019-06-08T19:58:31.014Z,2.50
2019-06-08T20:01:01.707Z,2.67
2019-06-08T20:03:31.708Z,2.40
2019-06-08T20:06:01.797Z,2.40
2019-06-08T20:08:31.755Z,2.27
2019-06-08T20:11:02.659Z,2.42
2019-06-08T20:13:33.058Z,2.10
2019-06-08T20:16:03.363Z,2.12
2019-06-08T20:18:34.009Z,2.43
2019-06-08T20:21:04.004Z,2.15
2019-06-08T20:23:34.513Z,2.10
2019-06-08T20:26:04.581Z,2.20
2019-06-08T20:28:34.472Z,2.50
2019-06-08T20:31:07.259Z,2.23
2019-06-08T20:33:37.852Z,2.72
2019-06-08T20:36:08.820Z,2.10
2019-06-08T20:38:42.288Z,2.50
2019-06-08T20:41:11.424Z,2.33
2019-06-08T20:43:42.813Z,2.90
2019-06-08T20:46:13.049Z,2.55
2019-06-08T20:48:44.226Z,2.65
2019-06-08T20:51:14.293Z,2.70
2019-06-08T20:53:44.508Z,2.58
2019-06-08T20:56:14.568Z,2.85
2019-06-08T20:58:45.294Z,3.07
2019-06-08T21:01:18.028Z,2.83
2019-06-08T21:03:49.536Z,3.15
2019-06-08T21:06:19.952Z,3.22
2019-06-08T21:08:51.480Z,3.45
2019-06-08T21:11:21.587Z,6.10
2019-06-08T21:13:52.790Z,4.53
2019-06-08T21:16:23.801Z,3.37
2019-06-08T21:18:55.047Z,2.87
2019-06-08T21:21:28.116Z,3.20
2019-06-08T21:24:00.981Z,2.97
2019-06-08T21:26:29.025Z,3.60
2019-06-08T21:29:00.526Z,2.95
2019-06-08T21:31:30.599Z,3.15
2019-06-08T21:34:01.030Z,3.00
2019-06-08T21:36:31.119Z,3.33
2019-06-08T21:39:02.582Z,3.37
2019-06-08T21:41:37.154Z,2.92
2019-06-08T21:44:07.803Z,3.00
2019-06-08T21:46:38.112Z,3.58
2019-06-08T21:49:09.971Z,3.17
2019-06-08T21:51:40.280Z,2.47
2019-06-08T21:54:10.932Z,2.95
2019-06-08T21:56:41.843Z,2.80
2019-06-08T21:59:11.889Z,2.33
2019-06-08T22:01:42.673Z,3.20
2019-06-08T22:04:12.539Z,2.53
2019-06-08T22:06:42.524Z,3.30
2019-06-08T22:09:12.720Z,2.90
2019-06-08T22:11:42.728Z,2.85
2019-06-08T22:14:12.750Z,3.70
2019-06-08T22:16:43.088Z,2.85
2019-06-08T22:19:13.069Z,2.67
2019-06-08T22:21:43.027Z,2.27
2019-06-08T22:24:12.839Z,2.70
2019-06-08T22:26:42.731Z,2.45
2019-06-08T22:29:12.689Z,2.93
2019-06-08T22:31:42.675Z,2.42
2019-06-08T22:34:13.886Z,2.57
2019-06-08T22:36:45.008Z,2.30
2019-06-08T22:39:17.472Z,2.87
2019-06-08T22:41:47.773Z,2.80
2019-06-08T22:44:17.922Z,2.53
2019-06-08T22:46:47.990Z,2.50
2019-06-08T22:49:18.598Z,2.20
2019-06-08T22:51:48.702Z,2.30
2019-06-08T22:54:19.228Z,2.50
2019-06-08T22:56:49.120Z,2.27
2019-06-08T22:59:19.095Z,2.40
2019-06-08T23:01:49.070Z,2.77
2019-06-08T23:04:19.035Z,2.67
2019-06-08T23:06:48.967Z,2.50
2019-06-08T23:09:19.003Z,2.70
2019-06-08T23:11:49.019Z,2.60
2019-06-08T23:14:19.966Z,2.60
2019-06-08T23:16:49.938Z,2.33
2019-06-08T23:19:19.912Z,3.13
2019-06-08T23:21:49.815Z,2.43
2019-06-08T23:24:19.868Z,2.90
2019-06-08T23:26:50.182Z,2.00
2019-06-08T23:29:20.163Z,2.77
2019-06-08T23:31:50.127Z,2.83
2019-06-08T23:34:23.075Z,3.17
2019-06-08T23:36:59.153Z,2.75
2019-06-08T23:39:23.630Z,2.24
2019-06-08T23:41:53.600Z,2.63
2019-06-08T23:44:23.529Z,2.08
2019-06-08T23:46:53.513Z,2.50
2019-06-08T23:49:23.412Z,2.50
2019-06-08T23:51:53.302Z,2.30
2019-06-08T23:54:23.167Z,2.37
2019-06-08T23:56:53.230Z,2.40
2019-06-08T23:59:23.169Z,2.53
